sensor_id;sensor_type;location;lat;lon;timestamp;temperature;humidity
15364;DHT22;7781;49.690;6.472;2023-02-28T00:01:35;-2.60;99.90
15364;DHT22;7781;49.690;6.472;2023-02-28T00:04:04;-2.60;99.90
15364;DHT22;7781;49.690;6.472;2023-02-28T00:06:38;-2.50;99.90
15364;DHT22;7781;49.690;6.472;2023-02-28T00:09:08;-2.50;99.90
15364;DHT22;7781;49.690;6.472;2023-02-28T00:11:36;-2.50;99.90
15364;DHT22;7781;49.690;6.472;2023-02-28T00:14:05;-2.50;99.90
15364;DHT22;7781;49.690;6.472;2023-02-28T00:16:33;-2.50;99.90
15364;DHT22;7781;49.690;6.472;2023-02-28T00:19:02;-2.40;99.90
15364;DHT22;7781;49.690;6.472;2023-02-28T00:21:31;-2.40;99.90
15364;DHT22;7781;49.690;6.472;2023-02-28T00:24:01;-2.40;99.90
15364;DHT22;7781;49.690;6.472;2023-02-28T00:26:30;-2.30;99.90
15364;DHT22;7781;49.690;6.472;2023-02-28T00:28:58;-2.30;99.90
15364;DHT22;7781;49.690;6.472;2023-02-28T00:31:27;-2.30;99.90
15364;DHT22;7781;49.690;6.472;2023-02-28T00:33:56;-2.30;99.90
15364;DHT22;7781;49.690;6.472;2023-02-28T00:36:25;-2.30;99.90
15364;DHT22;7781;49.690;6.472;2023-02-28T00:38:53;-2.30;99.90
15364;DHT22;7781;49.690;6.472;2023-02-28T00:41:23;-2.30;99.90
15364;DHT22;7781;49.690;6.472;2023-02-28T00:43:52;-2.30;99.90
15364;DHT22;7781;49.690;6.472;2023-02-28T00:46:24;-2.40;99.90
15364;DHT22;7781;49.690;6.472;2023-02-28T00:48:53;-2.40;99.90
15364;DHT22;7781;49.690;6.472;2023-02-28T00:51:22;-2.40;99.90
15364;DHT22;7781;49.690;6.472;2023-02-28T00:53:52;-2.30;99.90
15364;DHT22;7781;49.690;6.472;2023-02-28T00:56:25;-2.30;99.90
15364;DHT22;7781;49.690;6.472;2023-02-28T00:58:55;-2.40;99.90
15364;DHT22;7781;49.690;6.472;2023-02-28T01:01:24;-2.40;99.90
15364;DHT22;7781;49.690;6.472;2023-02-28T01:03:54;-2.50;99.90
15364;DHT22;7781;49.690;6.472;2023-02-28T01:06:25;-2.40;99.90
15364;DHT22;7781;49.690;6.472;2023-02-28T01:08:55;-2.50;99.90
15364;DHT22;7781;49.690;6.472;2023-02-28T01:11:30;-2.50;99.90
15364;DHT22;7781;49.690;6.472;2023-02-28T01:14:01;-2.50;99.90
15364;DHT22;7781;49.690;6.472;2023-02-28T01:16:31;-2.60;99.90
15364;DHT22;7781;49.690;6.472;2023-02-28T01:18:59;-2.60;99.90
15364;DHT22;7781;49.690;6.472;2023-02-28T01:21:29;-2.70;99.90
15364;DHT22;7781;49.690;6.472;2023-02-28T01:23:58;-2.70;99.90
15364;DHT22;7781;49.690;6.472;2023-02-28T01:26:27;-2.60;99.90
15364;DHT22;7781;49.690;6.472;2023-02-28T01:28:58;-2.60;99.90
15364;DHT22;7781;49.690;6.472;2023-02-28T01:31:26;-2.70;99.90
15364;DHT22;7781;49.690;6.472;2023-02-28T01:33:56;-2.70;99.90
15364;DHT22;7781;49.690;6.472;2023-02-28T01:36:28;-2.80;99.90
15364;DHT22;7781;49.690;6.472;2023-02-28T01:38:57;-2.80;99.90
15364;DHT22;7781;49.690;6.472;2023-02-28T01:41:27;-2.70;99.90
15364;DHT22;7781;49.690;6.472;2023-02-28T01:44:01;-2.70;99.90
15364;DHT22;7781;49.690;6.472;2023-02-28T01:46:34;-2.70;99.90
15364;DHT22;7781;49.690;6.472;2023-02-28T01:49:07;-2.70;99.90
15364;DHT22;7781;49.690;6.472;2023-02-28T01:51:40;-2.70;99.90
15364;DHT22;7781;49.690;6.472;2023-02-28T01:54:15;-2.70;99.90
15364;DHT22;7781;49.690;6.472;2023-02-28T01:56:52;-2.70;99.90
15364;DHT22;7781;49.690;6.472;2023-02-28T01:59:29;-2.70;99.90
15364;DHT22;7781;49.690;6.472;2023-02-28T02:01:59;-2.70;99.90
15364;DHT22;7781;49.690;6.472;2023-02-28T02:04:36;-2.80;99.90
15364;DHT22;7781;49.690;6.472;2023-02-28T02:07:05;-2.90;99.90
15364;DHT22;7781;49.690;6.472;2023-02-28T02:09:34;-3.00;99.90
15364;DHT22;7781;49.690;6.472;2023-02-28T02:12:10;-3.10;99.90
15364;DHT22;7781;49.690;6.472;2023-02-28T02:14:56;-3.20;99.90
15364;DHT22;7781;49.690;6.472;2023-02-28T02:17:32;-3.40;99.90
15364;DHT22;7781;49.690;6.472;2023-02-28T02:23:50;-3.50;99.90
15364;DHT22;7781;49.690;6.472;2023-02-28T02:29:56;-3.40;99.90
15364;DHT22;7781;49.690;6.472;2023-02-28T02:32:48;-3.40;99.90
15364;DHT22;7781;49.690;6.472;2023-02-28T02:35:25;-3.40;99.90
15364;DHT22;7781;49.690;6.472;2023-02-28T02:38:02;-3.30;99.90
15364;DHT22;7781;49.690;6.472;2023-02-28T02:40:40;-3.30;99.90
15364;DHT22;7781;49.690;6.472;2023-02-28T02:43:17;-3.30;99.90
15364;DHT22;7781;49.690;6.472;2023-02-28T02:45:51;-3.30;99.90
15364;DHT22;7781;49.690;6.472;2023-02-28T02:48:25;-3.30;99.90
15364;DHT22;7781;49.690;6.472;2023-02-28T02:51:02;-3.30;99.90
15364;DHT22;7781;49.690;6.472;2023-02-28T02:53:36;-3.30;99.90
15364;DHT22;7781;49.690;6.472;2023-02-28T02:56:07;-3.30;99.90
15364;DHT22;7781;49.690;6.472;2023-02-28T02:58:42;-3.30;99.90
15364;DHT22;7781;49.690;6.472;2023-02-28T03:01:15;-3.30;99.90
15364;DHT22;7781;49.690;6.472;2023-02-28T03:03:57;-3.30;99.90
15364;DHT22;7781;49.690;6.472;2023-02-28T03:06:29;-3.40;99.90
15364;DHT22;7781;49.690;6.472;2023-02-28T03:08:57;-3.50;99.90
15364;DHT22;7781;49.690;6.472;2023-02-28T03:11:30;-3.50;99.90
15364;DHT22;7781;49.690;6.472;2023-02-28T03:14:28;-3.50;99.90
15364;DHT22;7781;49.690;6.472;2023-02-28T03:17:12;-3.60;99.90
15364;DHT22;7781;49.690;6.472;2023-02-28T03:20:01;-3.70;99.90
15364;DHT22;7781;49.690;6.472;2023-02-28T03:22:46;-3.70;99.90
15364;DHT22;7781;49.690;6.472;2023-02-28T03:25:27;-3.70;99.90
15364;DHT22;7781;49.690;6.472;2023-02-28T03:28:05;-3.70;99.90
15364;DHT22;7781;49.690;6.472;2023-02-28T03:30:44;-3.70;99.90
15364;DHT22;7781;49.690;6.472;2023-02-28T03:33:17;-3.70;99.90
15364;DHT22;7781;49.690;6.472;2023-02-28T03:35:50;-3.70;99.90
15364;DHT22;7781;49.690;6.472;2023-02-28T03:38:27;-3.70;99.90
15364;DHT22;7781;49.690;6.472;2023-02-28T03:41:01;-3.60;99.90
15364;DHT22;7781;49.690;6.472;2023-02-28T03:43:35;-3.50;99.90
15364;DHT22;7781;49.690;6.472;2023-02-28T03:46:09;-3.50;99.90
15364;DHT22;7781;49.690;6.472;2023-02-28T03:48:41;-3.40;99.90
15364;DHT22;7781;49.690;6.472;2023-02-28T03:51:15;-3.40;99.90
15364;DHT22;7781;49.690;6.472;2023-02-28T03:53:49;-3.40;99.90
15364;DHT22;7781;49.690;6.472;2023-02-28T03:56:23;-3.40;99.90
15364;DHT22;7781;49.690;6.472;2023-02-28T03:58:57;-3.40;99.90
15364;DHT22;7781;49.690;6.472;2023-02-28T04:01:31;-3.40;99.90
15364;DHT22;7781;49.690;6.472;2023-02-28T04:04:02;-3.40;99.90
15364;DHT22;7781;49.690;6.472;2023-02-28T04:06:33;-3.40;99.90
15364;DHT22;7781;49.690;6.472;2023-02-28T04:09:05;-3.50;99.90
15364;DHT22;7781;49.690;6.472;2023-02-28T04:11:36;-3.50;99.90
15364;DHT22;7781;49.690;6.472;2023-02-28T04:14:07;-3.60;99.90
15364;DHT22;7781;49.690;6.472;2023-02-28T04:16:41;-3.80;99.90
15364;DHT22;7781;49.690;6.472;2023-02-28T04:19:11;-3.90;99.90
15364;DHT22;7781;49.690;6.472;2023-02-28T04:21:42;-3.90;99.90
15364;DHT22;7781;49.690;6.472;2023-02-28T04:24:13;-4.10;99.90
15364;DHT22;7781;49.690;6.472;2023-02-28T04:26:45;-4.10;99.90
15364;DHT22;7781;49.690;6.472;2023-02-28T04:29:19;-4.20;99.90
15364;DHT22;7781;49.690;6.472;2023-02-28T04:31:48;-4.10;99.90
15364;DHT22;7781;49.690;6.472;2023-02-28T04:34:19;-4.00;99.90
15364;DHT22;7781;49.690;6.472;2023-02-28T04:36:48;-4.00;99.90
15364;DHT22;7781;49.690;6.472;2023-02-28T04:39:39;-3.90;99.90
15364;DHT22;7781;49.690;6.472;2023-02-28T04:42:08;-3.80;99.90
15364;DHT22;7781;49.690;6.472;2023-02-28T04:44:37;-3.70;99.90
15364;DHT22;7781;49.690;6.472;2023-02-28T04:47:06;-3.60;99.90
15364;DHT22;7781;49.690;6.472;2023-02-28T04:49:34;-3.40;99.90
15364;DHT22;7781;49.690;6.472;2023-02-28T04:52:03;-3.30;99.90
15364;DHT22;7781;49.690;6.472;2023-02-28T04:54:34;-3.20;99.90
15364;DHT22;7781;49.690;6.472;2023-02-28T04:57:06;-3.00;99.90
15364;DHT22;7781;49.690;6.472;2023-02-28T04:59:35;-2.90;99.90
15364;DHT22;7781;49.690;6.472;2023-02-28T05:02:03;-2.90;99.90
15364;DHT22;7781;49.690;6.472;2023-02-28T05:04:36;-2.90;99.90
15364;DHT22;7781;49.690;6.472;2023-02-28T05:07:08;-3.00;99.90
15364;DHT22;7781;49.690;6.472;2023-02-28T05:09:38;-3.10;99.90
15364;DHT22;7781;49.690;6.472;2023-02-28T05:12:09;-3.30;99.90
15364;DHT22;7781;49.690;6.472;2023-02-28T05:14:37;-3.40;99.90
15364;DHT22;7781;49.690;6.472;2023-02-28T05:17:06;-3.50;99.90
15364;DHT22;7781;49.690;6.472;2023-02-28T05:19:35;-3.50;99.90
15364;DHT22;7781;49.690;6.472;2023-02-28T05:22:03;-3.60;99.90
15364;DHT22;7781;49.690;6.472;2023-02-28T05:24:31;-3.70;99.90
15364;DHT22;7781;49.690;6.472;2023-02-28T05:27:00;-3.70;99.90
15364;DHT22;7781;49.690;6.472;2023-02-28T05:29:34;-3.70;99.90
15364;DHT22;7781;49.690;6.472;2023-02-28T05:32:10;-3.70;99.90
15364;DHT22;7781;49.690;6.472;2023-02-28T05:34:40;-3.70;99.90
15364;DHT22;7781;49.690;6.472;2023-02-28T05:37:11;-3.70;99.90
15364;DHT22;7781;49.690;6.472;2023-02-28T05:39:40;-3.60;99.90
15364;DHT22;7781;49.690;6.472;2023-02-28T05:42:09;-3.60;99.90
15364;DHT22;7781;49.690;6.472;2023-02-28T05:44:39;-3.60;99.90
15364;DHT22;7781;49.690;6.472;2023-02-28T05:47:09;-3.60;99.90
15364;DHT22;7781;49.690;6.472;2023-02-28T05:49:39;-3.50;99.90
15364;DHT22;7781;49.690;6.472;2023-02-28T05:52:09;-3.50;99.90
15364;DHT22;7781;49.690;6.472;2023-02-28T05:54:38;-3.50;99.90
15364;DHT22;7781;49.690;6.472;2023-02-28T05:57:07;-3.40;99.90
15364;DHT22;7781;49.690;6.472;2023-02-28T05:59:51;-3.40;99.90
15364;DHT22;7781;49.690;6.472;2023-02-28T06:02:20;-3.40;99.90
15364;DHT22;7781;49.690;6.472;2023-02-28T06:04:48;-3.50;99.90
15364;DHT22;7781;49.690;6.472;2023-02-28T06:07:17;-3.60;99.90
15364;DHT22;7781;49.690;6.472;2023-02-28T06:09:45;-3.70;99.90
15364;DHT22;7781;49.690;6.472;2023-02-28T06:12:14;-3.80;99.90
15364;DHT22;7781;49.690;6.472;2023-02-28T06:14:42;-3.80;99.90
15364;DHT22;7781;49.690;6.472;2023-02-28T06:17:13;-3.90;99.90
15364;DHT22;7781;49.690;6.472;2023-02-28T06:19:41;-3.70;99.90
15364;DHT22;7781;49.690;6.472;2023-02-28T06:22:09;-3.70;99.90
15364;DHT22;7781;49.690;6.472;2023-02-28T06:24:38;-3.70;99.90
15364;DHT22;7781;49.690;6.472;2023-02-28T06:27:06;-3.80;99.90
15364;DHT22;7781;49.690;6.472;2023-02-28T06:29:35;-3.80;99.90
15364;DHT22;7781;49.690;6.472;2023-02-28T06:32:06;-3.70;99.90
15364;DHT22;7781;49.690;6.472;2023-02-28T06:34:36;-3.70;99.90
15364;DHT22;7781;49.690;6.472;2023-02-28T06:37:07;-3.60;99.90
15364;DHT22;7781;49.690;6.472;2023-02-28T06:39:39;-3.40;99.90
15364;DHT22;7781;49.690;6.472;2023-02-28T06:42:09;-3.20;99.90
15364;DHT22;7781;49.690;6.472;2023-02-28T06:44:39;-3.10;99.90
15364;DHT22;7781;49.690;6.472;2023-02-28T06:47:07;-3.00;99.90
15364;DHT22;7781;49.690;6.472;2023-02-28T06:49:37;-2.90;99.90
15364;DHT22;7781;49.690;6.472;2023-02-28T06:52:05;-2.90;99.90
15364;DHT22;7781;49.690;6.472;2023-02-28T06:54:36;-2.90;99.90
15364;DHT22;7781;49.690;6.472;2023-02-28T06:57:05;-2.80;99.90
15364;DHT22;7781;49.690;6.472;2023-02-28T06:59:34;-2.80;99.90
15364;DHT22;7781;49.690;6.472;2023-02-28T07:02:03;-2.70;99.90
15364;DHT22;7781;49.690;6.472;2023-02-28T07:04:33;-2.60;99.90
15364;DHT22;7781;49.690;6.472;2023-02-28T07:07:05;-2.60;99.90
15364;DHT22;7781;49.690;6.472;2023-02-28T07:09:34;-2.50;99.90
15364;DHT22;7781;49.690;6.472;2023-02-28T07:12:03;-2.40;99.90
15364;DHT22;7781;49.690;6.472;2023-02-28T07:14:32;-2.40;99.90
15364;DHT22;7781;49.690;6.472;2023-02-28T07:17:00;-2.40;99.90
15364;DHT22;7781;49.690;6.472;2023-02-28T07:19:28;-2.30;99.90
15364;DHT22;7781;49.690;6.472;2023-02-28T07:21:57;-2.30;99.90
15364;DHT22;7781;49.690;6.472;2023-02-28T07:24:28;-2.20;99.90
15364;DHT22;7781;49.690;6.472;2023-02-28T07:26:56;-2.10;99.90
15364;DHT22;7781;49.690;6.472;2023-02-28T07:29:27;-2.10;99.90
15364;DHT22;7781;49.690;6.472;2023-02-28T07:31:55;-2.10;99.90
15364;DHT22;7781;49.690;6.472;2023-02-28T07:34:28;-2.10;99.90
15364;DHT22;7781;49.690;6.472;2023-02-28T07:36:58;-2.10;99.90
15364;DHT22;7781;49.690;6.472;2023-02-28T07:39:32;-2.10;99.90
15364;DHT22;7781;49.690;6.472;2023-02-28T07:42:01;-2.00;99.90
15364;DHT22;7781;49.690;6.472;2023-02-28T07:44:33;-1.90;99.90
15364;DHT22;7781;49.690;6.472;2023-02-28T07:47:07;-1.90;99.90
15364;DHT22;7781;49.690;6.472;2023-02-28T07:49:37;-1.90;99.90
15364;DHT22;7781;49.690;6.472;2023-02-28T07:52:07;-1.90;99.90
15364;DHT22;7781;49.690;6.472;2023-02-28T07:54:39;-1.80;99.90
15364;DHT22;7781;49.690;6.472;2023-02-28T07:57:10;-1.80;99.90
15364;DHT22;7781;49.690;6.472;2023-02-28T07:59:39;-1.70;99.90
15364;DHT22;7781;49.690;6.472;2023-02-28T08:02:12;-1.60;99.90
15364;DHT22;7781;49.690;6.472;2023-02-28T08:04:42;-1.50;99.90
15364;DHT22;7781;49.690;6.472;2023-02-28T08:07:12;-1.40;99.90
15364;DHT22;7781;49.690;6.472;2023-02-28T08:09:45;-1.40;99.90
15364;DHT22;7781;49.690;6.472;2023-02-28T08:12:17;-1.30;99.90
15364;DHT22;7781;49.690;6.472;2023-02-28T08:14:46;-1.30;99.90
15364;DHT22;7781;49.690;6.472;2023-02-28T08:17:15;-1.20;99.90
15364;DHT22;7781;49.690;6.472;2023-02-28T08:19:45;-1.10;99.90
15364;DHT22;7781;49.690;6.472;2023-02-28T08:22:15;-1.00;99.90
15364;DHT22;7781;49.690;6.472;2023-02-28T08:24:47;-0.80;99.90
15364;DHT22;7781;49.690;6.472;2023-02-28T08:27:17;-0.70;99.90
15364;DHT22;7781;49.690;6.472;2023-02-28T08:29:45;-0.60;99.90
15364;DHT22;7781;49.690;6.472;2023-02-28T08:32:15;-0.30;99.90
15364;DHT22;7781;49.690;6.472;2023-02-28T08:34:56;-0.20;99.90
15364;DHT22;7781;49.690;6.472;2023-02-28T08:37:25;0.00;99.90
15364;DHT22;7781;49.690;6.472;2023-02-28T08:39:55;0.00;99.90
15364;DHT22;7781;49.690;6.472;2023-02-28T08:42:25;0.10;99.90
15364;DHT22;7781;49.690;6.472;2023-02-28T08:44:54;0.30;99.90
15364;DHT22;7781;49.690;6.472;2023-02-28T08:47:23;0.30;99.90
15364;DHT22;7781;49.690;6.472;2023-02-28T08:49:53;0.40;99.90
15364;DHT22;7781;49.690;6.472;2023-02-28T08:52:22;0.30;99.90
15364;DHT22;7781;49.690;6.472;2023-02-28T08:54:56;0.30;99.90
15364;DHT22;7781;49.690;6.472;2023-02-28T08:57:25;0.40;99.90
15364;DHT22;7781;49.690;6.472;2023-02-28T08:59:54;0.40;99.90
15364;DHT22;7781;49.690;6.472;2023-02-28T09:02:26;0.50;99.90
15364;DHT22;7781;49.690;6.472;2023-02-28T09:04:55;0.60;99.90
15364;DHT22;7781;49.690;6.472;2023-02-28T09:07:24;0.70;99.90
15364;DHT22;7781;49.690;6.472;2023-02-28T09:09:53;0.80;99.90
15364;DHT22;7781;49.690;6.472;2023-02-28T09:12:28;0.80;99.90
15364;DHT22;7781;49.690;6.472;2023-02-28T09:15:01;0.90;99.90
15364;DHT22;7781;49.690;6.472;2023-02-28T09:17:29;0.90;99.90
15364;DHT22;7781;49.690;6.472;2023-02-28T09:19:59;1.00;99.90
15364;DHT22;7781;49.690;6.472;2023-02-28T09:22:29;1.20;99.90
15364;DHT22;7781;49.690;6.472;2023-02-28T09:24:59;1.40;99.90
15364;DHT22;7781;49.690;6.472;2023-02-28T09:27:30;1.50;99.90
15364;DHT22;7781;49.690;6.472;2023-02-28T09:30:00;1.70;99.90
15364;DHT22;7781;49.690;6.472;2023-02-28T09:32:32;1.80;99.90
15364;DHT22;7781;49.690;6.472;2023-02-28T09:35:01;1.90;99.90
15364;DHT22;7781;49.690;6.472;2023-02-28T09:37:31;2.10;99.90
15364;DHT22;7781;49.690;6.472;2023-02-28T09:40:00;2.10;99.90
15364;DHT22;7781;49.690;6.472;2023-02-28T09:42:32;2.10;99.90
15364;DHT22;7781;49.690;6.472;2023-02-28T09:45:21;2.10;99.90
15364;DHT22;7781;49.690;6.472;2023-02-28T09:47:55;2.20;99.90
15364;DHT22;7781;49.690;6.472;2023-02-28T09:50:30;2.30;99.90
15364;DHT22;7781;49.690;6.472;2023-02-28T09:53:10;2.40;99.90
15364;DHT22;7781;49.690;6.472;2023-02-28T09:55:47;2.40;99.90
15364;DHT22;7781;49.690;6.472;2023-02-28T09:58:26;2.40;99.90
15364;DHT22;7781;49.690;6.472;2023-02-28T10:01:02;2.40;99.90
15364;DHT22;7781;49.690;6.472;2023-02-28T10:03:36;2.40;99.90
15364;DHT22;7781;49.690;6.472;2023-02-28T10:06:13;2.50;99.90
15364;DHT22;7781;49.690;6.472;2023-02-28T10:08:47;2.50;99.90
15364;DHT22;7781;49.690;6.472;2023-02-28T10:11:21;2.70;99.90
15364;DHT22;7781;49.690;6.472;2023-02-28T10:14:01;2.80;99.90
15364;DHT22;7781;49.690;6.472;2023-02-28T10:16:36;2.80;99.90
15364;DHT22;7781;49.690;6.472;2023-02-28T10:19:11;3.00;99.90
15364;DHT22;7781;49.690;6.472;2023-02-28T10:21:47;3.00;99.90
15364;DHT22;7781;49.690;6.472;2023-02-28T10:24:21;3.30;99.90
15364;DHT22;7781;49.690;6.472;2023-02-28T10:26:59;3.50;99.90
15364;DHT22;7781;49.690;6.472;2023-02-28T10:29:32;3.70;99.90
15364;DHT22;7781;49.690;6.472;2023-02-28T10:32:02;3.80;99.90
15364;DHT22;7781;49.690;6.472;2023-02-28T10:34:31;3.90;99.90
15364;DHT22;7781;49.690;6.472;2023-02-28T10:37:02;3.90;99.90
15364;DHT22;7781;49.690;6.472;2023-02-28T10:39:36;4.00;99.90
15364;DHT22;7781;49.690;6.472;2023-02-28T10:42:23;4.30;99.90
15364;DHT22;7781;49.690;6.472;2023-02-28T10:45:11;4.40;99.90
15364;DHT22;7781;49.690;6.472;2023-02-28T10:47:51;4.60;99.90
15364;DHT22;7781;49.690;6.472;2023-02-28T10:50:30;4.70;99.90
15364;DHT22;7781;49.690;6.472;2023-02-28T10:53:33;4.80;99.90
15364;DHT22;7781;49.690;6.472;2023-02-28T10:56:24;4.90;99.90
15364;DHT22;7781;49.690;6.472;2023-02-28T10:58:55;5.00;99.90
15364;DHT22;7781;49.690;6.472;2023-02-28T11:01:35;5.10;99.90
15364;DHT22;7781;49.690;6.472;2023-02-28T11:04:17;5.30;99.90
15364;DHT22;7781;49.690;6.472;2023-02-28T11:06:56;5.30;99.90
15364;DHT22;7781;49.690;6.472;2023-02-28T11:09:29;5.20;99.90
15364;DHT22;7781;49.690;6.472;2023-02-28T11:12:00;5.20;99.90
15364;DHT22;7781;49.690;6.472;2023-02-28T11:14:31;5.30;99.90
15364;DHT22;7781;49.690;6.472;2023-02-28T11:17:13;5.40;99.90
15364;DHT22;7781;49.690;6.472;2023-02-28T11:19:46;5.40;99.90
15364;DHT22;7781;49.690;6.472;2023-02-28T11:22:19;5.50;99.90
15364;DHT22;7781;49.690;6.472;2023-02-28T11:24:50;5.50;99.90
15364;DHT22;7781;49.690;6.472;2023-02-28T11:27:26;5.60;99.90
15364;DHT22;7781;49.690;6.472;2023-02-28T11:30:28;5.50;99.90
15364;DHT22;7781;49.690;6.472;2023-02-28T11:33:20;5.50;99.90
15364;DHT22;7781;49.690;6.472;2023-02-28T11:35:53;5.20;99.90
15364;DHT22;7781;49.690;6.472;2023-02-28T11:38:26;5.10;99.90
15364;DHT22;7781;49.690;6.472;2023-02-28T11:41:14;5.10;99.90
15364;DHT22;7781;49.690;6.472;2023-02-28T11:44:01;5.10;99.90
15364;DHT22;7781;49.690;6.472;2023-02-28T11:46:36;5.20;99.90
15364;DHT22;7781;49.690;6.472;2023-02-28T11:49:21;5.40;99.90
15364;DHT22;7781;49.690;6.472;2023-02-28T11:51:55;5.60;99.90
15364;DHT22;7781;49.690;6.472;2023-02-28T11:54:59;5.60;99.90
15364;DHT22;7781;49.690;6.472;2023-02-28T12:00:57;5.60;99.90
15364;DHT22;7781;49.690;6.472;2023-02-28T12:03:38;5.50;99.90
15364;DHT22;7781;49.690;6.472;2023-02-28T12:06:19;5.40;99.90
15364;DHT22;7781;49.690;6.472;2023-02-28T12:09:04;5.40;99.90
15364;DHT22;7781;49.690;6.472;2023-02-28T12:11:45;5.50;99.90
15364;DHT22;7781;49.690;6.472;2023-02-28T12:14:31;5.40;99.90
15364;DHT22;7781;49.690;6.472;2023-02-28T12:17:10;5.50;99.90
15364;DHT22;7781;49.690;6.472;2023-02-28T12:19:47;5.50;99.90
15364;DHT22;7781;49.690;6.472;2023-02-28T12:22:38;5.60;99.90
15364;DHT22;7781;49.690;6.472;2023-02-28T12:28:09;5.40;99.90
15364;DHT22;7781;49.690;6.472;2023-02-28T12:30:41;5.50;99.90
15364;DHT22;7781;49.690;6.472;2023-02-28T12:33:16;5.50;99.90
15364;DHT22;7781;49.690;6.472;2023-02-28T12:35:49;5.70;99.90
15364;DHT22;7781;49.690;6.472;2023-02-28T12:38:22;6.10;99.90
15364;DHT22;7781;49.690;6.472;2023-02-28T12:40:56;6.50;99.90
15364;DHT22;7781;49.690;6.472;2023-02-28T12:43:32;6.60;99.90
15364;DHT22;7781;49.690;6.472;2023-02-28T12:46:09;6.80;99.90
15364;DHT22;7781;49.690;6.472;2023-02-28T12:48:42;6.90;99.90
15364;DHT22;7781;49.690;6.472;2023-02-28T12:51:12;6.60;99.90
15364;DHT22;7781;49.690;6.472;2023-02-28T12:53:51;6.60;99.90
15364;DHT22;7781;49.690;6.472;2023-02-28T12:56:31;6.80;99.90
15364;DHT22;7781;49.690;6.472;2023-02-28T12:59:04;6.80;99.90
15364;DHT22;7781;49.690;6.472;2023-02-28T13:01:57;6.60;99.90
15364;DHT22;7781;49.690;6.472;2023-02-28T13:04:46;6.50;99.90
15364;DHT22;7781;49.690;6.472;2023-02-28T13:07:42;6.40;99.90
15364;DHT22;7781;49.690;6.472;2023-02-28T13:10:16;6.10;99.90
15364;DHT22;7781;49.690;6.472;2023-02-28T13:12:49;6.30;99.90
15364;DHT22;7781;49.690;6.472;2023-02-28T13:15:22;6.50;99.90
15364;DHT22;7781;49.690;6.472;2023-02-28T13:17:53;6.40;99.90
15364;DHT22;7781;49.690;6.472;2023-02-28T13:20:24;6.50;99.90
15364;DHT22;7781;49.690;6.472;2023-02-28T13:22:55;6.90;99.90
15364;DHT22;7781;49.690;6.472;2023-02-28T13:25:50;7.50;99.90
15364;DHT22;7781;49.690;6.472;2023-02-28T13:28:57;8.20;99.90
15364;DHT22;7781;49.690;6.472;2023-02-28T13:31:28;8.60;99.90
15364;DHT22;7781;49.690;6.472;2023-02-28T13:34:12;8.60;99.90
15364;DHT22;7781;49.690;6.472;2023-02-28T13:36:41;8.70;99.90
15364;DHT22;7781;49.690;6.472;2023-02-28T13:39:46;8.80;99.90
15364;DHT22;7781;49.690;6.472;2023-02-28T13:42:33;9.10;99.90
15364;DHT22;7781;49.690;6.472;2023-02-28T13:45:25;8.70;99.90
15364;DHT22;7781;49.690;6.472;2023-02-28T13:47:58;8.40;99.90
15364;DHT22;7781;49.690;6.472;2023-02-28T13:50:32;8.60;99.90
15364;DHT22;7781;49.690;6.472;2023-02-28T13:53:33;8.60;99.90
15364;DHT22;7781;49.690;6.472;2023-02-28T13:56:18;8.50;99.90
15364;DHT22;7781;49.690;6.472;2023-02-28T13:58:54;8.60;99.90
15364;DHT22;7781;49.690;6.472;2023-02-28T14:01:36;8.80;99.90
15364;DHT22;7781;49.690;6.472;2023-02-28T14:07:19;9.60;99.90
15364;DHT22;7781;49.690;6.472;2023-02-28T14:09:56;9.40;99.90
15364;DHT22;7781;49.690;6.472;2023-02-28T14:12:54;8.90;99.90
15364;DHT22;7781;49.690;6.472;2023-02-28T14:15:48;8.40;99.90
15364;DHT22;7781;49.690;6.472;2023-02-28T14:18:23;7.80;99.90
15364;DHT22;7781;49.690;6.472;2023-02-28T14:20:58;7.50;99.90
15364;DHT22;7781;49.690;6.472;2023-02-28T14:24:00;7.60;99.90
15364;DHT22;7781;49.690;6.472;2023-02-28T14:30:12;7.90;99.90
15364;DHT22;7781;49.690;6.472;2023-02-28T14:32:49;8.00;99.90
15364;DHT22;7781;49.690;6.472;2023-02-28T14:35:28;8.00;99.90
15364;DHT22;7781;49.690;6.472;2023-02-28T14:38:05;8.00;99.90
15364;DHT22;7781;49.690;6.472;2023-02-28T14:40:35;8.00;99.90
15364;DHT22;7781;49.690;6.472;2023-02-28T14:43:20;7.70;99.90
15364;DHT22;7781;49.690;6.472;2023-02-28T14:45:51;7.50;99.90
15364;DHT22;7781;49.690;6.472;2023-02-28T14:48:23;7.40;99.90
15364;DHT22;7781;49.690;6.472;2023-02-28T14:50:54;7.30;99.90
15364;DHT22;7781;49.690;6.472;2023-02-28T14:53:27;7.40;99.90
15364;DHT22;7781;49.690;6.472;2023-02-28T14:55:56;7.70;99.90
15364;DHT22;7781;49.690;6.472;2023-02-28T14:58:27;7.80;99.90
15364;DHT22;7781;49.690;6.472;2023-02-28T15:00:57;7.90;99.90
15364;DHT22;7781;49.690;6.472;2023-02-28T15:03:30;8.00;99.90
15364;DHT22;7781;49.690;6.472;2023-02-28T15:06:01;8.10;99.90
15364;DHT22;7781;49.690;6.472;2023-02-28T15:08:32;8.00;99.90
15364;DHT22;7781;49.690;6.472;2023-02-28T15:11:07;7.90;99.90
15364;DHT22;7781;49.690;6.472;2023-02-28T15:13:38;8.00;99.90
15364;DHT22;7781;49.690;6.472;2023-02-28T15:16:10;8.00;99.90
15364;DHT22;7781;49.690;6.472;2023-02-28T15:18:56;8.10;99.90
15364;DHT22;7781;49.690;6.472;2023-02-28T15:21:28;7.90;99.90
15364;DHT22;7781;49.690;6.472;2023-02-28T15:24:03;7.80;99.90
15364;DHT22;7781;49.690;6.472;2023-02-28T15:26:37;7.80;99.90
15364;DHT22;7781;49.690;6.472;2023-02-28T15:29:08;7.80;99.90
15364;DHT22;7781;49.690;6.472;2023-02-28T15:31:44;8.00;99.90
15364;DHT22;7781;49.690;6.472;2023-02-28T15:34:34;7.90;99.90
15364;DHT22;7781;49.690;6.472;2023-02-28T15:37:28;7.90;99.90
15364;DHT22;7781;49.690;6.472;2023-02-28T15:40:03;7.70;99.90
15364;DHT22;7781;49.690;6.472;2023-02-28T15:42:33;7.60;99.90
15364;DHT22;7781;49.690;6.472;2023-02-28T15:45:01;7.60;99.90
15364;DHT22;7781;49.690;6.472;2023-02-28T15:47:30;7.50;99.90
15364;DHT22;7781;49.690;6.472;2023-02-28T15:50:04;7.40;99.90
15364;DHT22;7781;49.690;6.472;2023-02-28T15:52:43;7.40;99.90
15364;DHT22;7781;49.690;6.472;2023-02-28T15:55:18;7.30;99.90
15364;DHT22;7781;49.690;6.472;2023-02-28T15:57:50;7.20;99.90
15364;DHT22;7781;49.690;6.472;2023-02-28T16:00:21;7.10;99.90
15364;DHT22;7781;49.690;6.472;2023-02-28T16:02:51;6.90;99.90
15364;DHT22;7781;49.690;6.472;2023-02-28T16:05:27;6.70;99.90
15364;DHT22;7781;49.690;6.472;2023-02-28T16:08:00;6.60;99.90
15364;DHT22;7781;49.690;6.472;2023-02-28T16:10:29;6.40;99.90
15364;DHT22;7781;49.690;6.472;2023-02-28T16:13:01;6.40;99.90
15364;DHT22;7781;49.690;6.472;2023-02-28T16:15:34;6.40;99.90
15364;DHT22;7781;49.690;6.472;2023-02-28T16:18:10;6.30;99.90
15364;DHT22;7781;49.690;6.472;2023-02-28T16:20:45;6.10;99.90
15364;DHT22;7781;49.690;6.472;2023-02-28T16:23:14;6.10;99.90
15364;DHT22;7781;49.690;6.472;2023-02-28T16:25:43;6.00;99.90
15364;DHT22;7781;49.690;6.472;2023-02-28T16:28:20;6.00;99.90
15364;DHT22;7781;49.690;6.472;2023-02-28T16:30:51;5.80;99.90
15364;DHT22;7781;49.690;6.472;2023-02-28T16:33:20;5.70;99.90
15364;DHT22;7781;49.690;6.472;2023-02-28T16:35:51;5.60;99.90
15364;DHT22;7781;49.690;6.472;2023-02-28T16:38:22;5.50;99.90
15364;DHT22;7781;49.690;6.472;2023-02-28T16:40:54;5.50;99.90
15364;DHT22;7781;49.690;6.472;2023-02-28T16:43:27;5.40;99.90
15364;DHT22;7781;49.690;6.472;2023-02-28T16:45:56;5.30;99.90
15364;DHT22;7781;49.690;6.472;2023-02-28T16:48:27;5.20;99.90
15364;DHT22;7781;49.690;6.472;2023-02-28T16:50:59;5.20;99.90
15364;DHT22;7781;49.690;6.472;2023-02-28T16:53:29;5.10;99.90
15364;DHT22;7781;49.690;6.472;2023-02-28T16:55:58;4.90;99.90
15364;DHT22;7781;49.690;6.472;2023-02-28T16:58:34;4.90;99.90